In Rescue
 
Open Full Screen Window  High Contrast Mode
Wind Gusting 00 knots
10
November 14, 2019 12:55 PM CST
Weather Information
Wind Direction
  270 °
Wind Speed
  10 kt (12 mph)
Wind Gust
  00 kt (0 mph)
Altimeter
30.23 in
Visibility
10 SM
Temperature
-02° C
28° F
Dewpoint
-09° C
16° F
Humidity
59%
1hr Rain Fall
00.00 in.
24hr Rain Fall
00.02 in.
Sky Condition
Clear
VFR

METAR KSGS 141855Z AUTO 27010KT 10SM CLR M02/M09 A3023 RMK AO2 T10201095

FAA Disclaimer: The data displayed is for advisory purposes only and is not to be used for flight planning or operations.